createdAt,value
2017-03-28T00:00:19.600Z,1039.5
2017-03-28T00:01:19.590Z,1039.5
2017-03-28T00:02:19.580Z,1039.52
2017-03-28T00:03:19.568Z,1039.55
2017-03-28T00:04:19.558Z,1039.56
2017-03-28T00:05:19.546Z,1039.56
2017-03-28T00:06:19.536Z,1039.62
2017-03-28T00:07:19.526Z,1039.61
2017-03-28T00:08:19.514Z,1039.65
2017-03-28T00:09:19.504Z,1039.7
2017-03-28T00:10:19.492Z,1039.65
2017-03-28T00:11:19.481Z,1039.65
2017-03-28T00:12:19.471Z,1039.68
2017-03-28T00:13:19.460Z,1039.71
2017-03-28T00:14:19.448Z,1039.71
2017-03-28T00:15:19.438Z,1039.69
2017-03-28T00:16:19.427Z,1039.67
2017-03-28T00:17:19.415Z,1039.65
2017-03-28T00:18:19.410Z,1039.71
2017-03-28T00:19:19.393Z,1039.71
2017-03-28T00:20:19.383Z,1039.66
2017-03-28T00:21:19.372Z,1039.69
2017-03-28T00:22:19.360Z,1039.69
2017-03-28T00:23:19.350Z,1039.71
2017-03-28T00:24:19.339Z,1039.74
2017-03-28T00:25:19.326Z,1039.7
2017-03-28T00:26:19.317Z,1039.76
2017-03-28T00:27:19.305Z,1039.71
2017-03-28T00:28:19.294Z,1039.69
2017-03-28T00:29:19.283Z,1039.69
2017-03-28T00:30:19.275Z,1039.69
2017-03-28T00:31:19.261Z,1039.68
2017-03-28T00:32:19.249Z,1039.66
2017-03-28T00:33:19.238Z,1039.67
2017-03-28T00:34:19.227Z,1039.69
2017-03-28T00:35:19.217Z,1039.65
2017-03-28T00:36:19.204Z,1039.69
2017-03-28T00:37:19.193Z,1039.68
2017-03-28T00:38:19.182Z,1039.7
2017-03-28T00:39:19.170Z,1039.72
2017-03-28T00:40:19.159Z,1039.7
2017-03-28T00:41:19.148Z,1039.7
2017-03-28T00:42:19.137Z,1039.72
2017-03-28T00:43:19.125Z,1039.71
2017-03-28T00:44:19.114Z,1039.74
2017-03-28T00:45:19.103Z,1039.73
2017-03-28T00:46:19.092Z,1039.73
2017-03-28T00:47:19.085Z,1039.7
2017-03-28T00:48:19.069Z,1039.77
2017-03-28T00:49:19.058Z,1039.75
2017-03-28T00:50:19.046Z,1039.78
2017-03-28T00:51:19.035Z,1039.76
2017-03-28T00:52:19.023Z,1039.77
2017-03-28T00:53:19.012Z,1039.77
2017-03-28T00:54:19.000Z,1039.75
2017-03-28T00:55:18.988Z,1039.75
2017-03-28T00:56:18.977Z,1039.76
2017-03-28T00:57:18.966Z,1039.71
2017-03-28T00:58:18.954Z,1039.72
2017-03-28T00:59:18.943Z,1039.71
2017-03-28T01:00:18.931Z,1039.69
2017-03-28T01:01:18.920Z,1039.65
2017-03-28T01:02:18.908Z,1039.67
2017-03-28T01:03:18.897Z,1039.68
2017-03-28T01:04:18.886Z,1039.7
2017-03-28T01:05:18.875Z,1039.66
2017-03-28T01:06:18.862Z,1039.67
2017-03-28T01:07:18.852Z,1039.66
2017-03-28T01:08:18.840Z,1039.65
2017-03-28T01:09:18.829Z,1039.66
2017-03-28T01:10:18.818Z,1039.62
2017-03-28T01:11:18.807Z,1039.62
2017-03-28T01:12:18.794Z,1039.58
2017-03-28T01:13:18.783Z,1039.58
2017-03-28T01:14:18.772Z,1039.57
2017-03-28T01:15:18.760Z,1039.52
2017-03-28T01:16:18.749Z,1039.54
2017-03-28T01:17:18.736Z,1039.53
2017-03-28T01:18:18.726Z,1039.53
2017-03-28T01:19:18.713Z,1039.53
2017-03-28T01:20:18.701Z,1039.48
2017-03-28T01:21:18.690Z,1039.5
2017-03-28T01:22:18.678Z,1039.52
2017-03-28T01:23:18.667Z,1039.5
2017-03-28T01:24:18.655Z,1039.43
2017-03-28T01:25:18.643Z,1039.44
2017-03-28T01:26:18.633Z,1039.44
2017-03-28T01:27:18.620Z,1039.44
2017-03-28T01:28:18.609Z,1039.43
2017-03-28T01:29:18.598Z,1039.43
2017-03-28T01:30:18.585Z,1039.45
2017-03-28T01:31:18.573Z,1039.45
2017-03-28T01:32:18.561Z,1039.45
2017-03-28T01:33:18.551Z,1039.44
2017-03-28T01:34:18.539Z,1039.42
2017-03-28T01:35:18.530Z,1039.43
2017-03-28T01:36:18.516Z,1039.42
2017-03-28T01:37:18.504Z,1039.4
2017-03-28T01:38:18.492Z,1039.4
2017-03-28T01:39:18.483Z,1039.4
2017-03-28T01:40:18.471Z,1039.39
2017-03-28T01:41:18.456Z,1039.38
2017-03-28T01:42:18.445Z,1039.39
2017-03-28T01:43:18.434Z,1039.38
2017-03-28T01:44:18.423Z,1039.37
2017-03-28T01:45:18.410Z,1039.37
2017-03-28T01:46:18.399Z,1039.37
2017-03-28T01:47:18.387Z,1039.36
2017-03-28T01:48:18.376Z,1039.36
2017-03-28T01:49:18.362Z,1039.31
2017-03-28T01:50:18.351Z,1039.34
2017-03-28T01:51:18.340Z,1039.3
2017-03-28T01:52:18.327Z,1039.33
2017-03-28T01:53:18.315Z,1039.31
2017-03-28T01:54:18.305Z,1039.34
2017-03-28T01:55:18.292Z,1039.32
2017-03-28T01:56:18.280Z,1039.3
2017-03-28T01:57:18.270Z,1039.32
2017-03-28T01:58:18.257Z,1039.3
2017-03-28T01:59:18.246Z,1039.33
2017-03-28T02:00:18.233Z,1039.35
2017-03-28T02:01:18.221Z,1039.32
2017-03-28T02:02:18.210Z,1039.31
2017-03-28T02:03:18.198Z,1039.35
2017-03-28T02:04:18.186Z,1039.34
2017-03-28T02:05:18.174Z,1039.33
2017-03-28T02:06:18.162Z,1039.36
2017-03-28T02:07:18.149Z,1039.38
2017-03-28T02:08:18.138Z,1039.35
2017-03-28T02:09:18.126Z,1039.36
2017-03-28T02:10:18.115Z,1039.4
2017-03-28T02:11:18.101Z,1039.43
2017-03-28T02:12:18.091Z,1039.37
2017-03-28T02:13:18.078Z,1039.42
2017-03-28T02:14:18.066Z,1039.43
2017-03-28T02:15:18.053Z,1039.46
2017-03-28T02:16:18.043Z,1039.44
2017-03-28T02:17:18.030Z,1039.44
2017-03-28T02:18:18.018Z,1039.47
2017-03-28T02:19:18.006Z,1039.49
2017-03-28T02:20:17.995Z,1039.5
2017-03-28T02:21:17.982Z,1039.49
2017-03-28T02:22:17.969Z,1039.49
2017-03-28T02:23:17.958Z,1039.54
2017-03-28T02:24:17.946Z,1039.5
2017-03-28T02:25:17.933Z,1039.52
2017-03-28T02:26:17.921Z,1039.5
2017-03-28T02:27:17.909Z,1039.53
2017-03-28T02:28:17.898Z,1039.49
2017-03-28T02:29:17.884Z,1039.56
2017-03-28T02:30:17.873Z,1039.58
2017-03-28T02:31:17.861Z,1039.56
2017-03-28T02:32:17.849Z,1039.59
2017-03-28T02:33:17.836Z,1039.57
2017-03-28T02:34:17.824Z,1039.57
2017-03-28T02:35:17.812Z,1039.54
2017-03-28T02:36:17.799Z,1039.56
2017-03-28T02:37:17.788Z,1039.57
2017-03-28T02:38:17.776Z,1039.57
2017-03-28T02:39:17.763Z,1039.55
2017-03-28T02:40:17.751Z,1039.56
2017-03-28T02:41:17.738Z,1039.57
2017-03-28T02:42:17.727Z,1039.59
2017-03-28T02:43:17.715Z,1039.55
2017-03-28T02:44:17.703Z,1039.51
2017-03-28T02:45:17.690Z,1039.52
2017-03-28T02:46:17.679Z,1039.52
2017-03-28T02:47:17.666Z,1039.54
2017-03-28T02:48:17.655Z,1039.55
2017-03-28T02:49:17.642Z,1039.55
2017-03-28T02:50:17.630Z,1039.55
2017-03-28T02:51:17.617Z,1039.55
2017-03-28T02:52:17.606Z,1039.56
2017-03-28T02:53:17.593Z,1039.53
2017-03-28T02:54:17.580Z,1039.53
2017-03-28T02:55:17.568Z,1039.56
2017-03-28T02:56:17.556Z,1039.55
2017-03-28T02:57:17.543Z,1039.57
2017-03-28T02:58:17.531Z,1039.54
2017-03-28T02:59:17.519Z,1039.58
2017-03-28T03:00:17.507Z,1039.58
2017-03-28T03:01:17.494Z,1039.56
2017-03-28T03:02:17.481Z,1039.56
2017-03-28T03:03:17.468Z,1039.59
2017-03-28T03:04:17.457Z,1039.56
2017-03-28T03:05:17.444Z,1039.54
2017-03-28T03:06:17.432Z,1039.53
2017-03-28T03:07:17.420Z,1039.54
2017-03-28T03:08:17.408Z,1039.54
2017-03-28T03:09:17.394Z,1039.47
2017-03-28T03:10:17.382Z,1039.48
2017-03-28T03:11:17.370Z,1039.49
2017-03-28T03:12:17.358Z,1039.5
2017-03-28T03:13:17.346Z,1039.49
2017-03-28T03:14:17.334Z,1039.53
2017-03-28T03:15:17.321Z,1039.54
2017-03-28T03:16:17.308Z,1039.54
2017-03-28T03:17:17.296Z,1039.57
2017-03-28T03:18:17.289Z,1039.58
2017-03-28T03:19:17.271Z,1039.6
2017-03-28T03:20:17.259Z,1039.54
2017-03-28T03:21:17.247Z,1039.57
2017-03-28T03:22:17.234Z,1039.58
2017-03-28T03:23:17.223Z,1039.57
2017-03-28T03:24:17.209Z,1039.57
2017-03-28T03:25:17.197Z,1039.62
2017-03-28T03:26:17.184Z,1039.62
2017-03-28T03:27:17.172Z,1039.63
2017-03-28T03:28:17.160Z,1039.62
2017-03-28T03:29:17.147Z,1039.64
2017-03-28T03:30:17.135Z,1039.64
2017-03-28T03:31:17.122Z,1039.64
2017-03-28T03:32:17.110Z,1039.65
2017-03-28T03:33:17.097Z,1039.63
2017-03-28T03:34:17.086Z,1039.62
2017-03-28T03:35:17.072Z,1039.61
2017-03-28T03:36:17.060Z,1039.6
2017-03-28T03:37:17.047Z,1039.64
2017-03-28T03:38:17.035Z,1039.6
2017-03-28T03:39:17.025Z,1039.55
2017-03-28T03:40:17.010Z,1039.55
2017-03-28T03:41:16.998Z,1039.55
2017-03-28T03:42:16.984Z,1039.55
2017-03-28T03:43:16.979Z,1039.54
2017-03-28T03:44:16.960Z,1039.57
2017-03-28T03:45:16.947Z,1039.59
2017-03-28T03:46:16.934Z,1039.56
2017-03-28T03:47:16.922Z,1039.57
2017-03-28T03:48:16.910Z,1039.55
2017-03-28T03:49:16.897Z,1039.54
2017-03-28T03:50:16.884Z,1039.56
2017-03-28T03:51:16.872Z,1039.55
2017-03-28T03:52:16.859Z,1039.55
2017-03-28T03:53:16.847Z,1039.53
2017-03-28T03:54:16.835Z,1039.55
2017-03-28T03:55:16.822Z,1039.59
2017-03-28T03:56:16.809Z,1039.57
2017-03-28T03:57:16.796Z,1039.6
2017-03-28T03:58:16.784Z,1039.66
2017-03-28T03:59:16.772Z,1039.62
2017-03-28T04:00:16.758Z,1039.63
2017-03-28T04:01:16.746Z,1039.61
2017-03-28T04:02:16.733Z,1039.61
2017-03-28T04:03:16.721Z,1039.6
2017-03-28T04:04:16.708Z,1039.6
2017-03-28T04:05:16.695Z,1039.6
2017-03-28T04:06:16.683Z,1039.59
2017-03-28T04:07:16.671Z,1039.61
2017-03-28T04:08:16.658Z,1039.61
2017-03-28T04:09:16.645Z,1039.69
2017-03-28T04:10:16.632Z,1039.7
2017-03-28T04:11:16.619Z,1039.69
2017-03-28T04:12:16.607Z,1039.69
2017-03-28T04:13:16.595Z,1039.71
2017-03-28T04:14:16.582Z,1039.71
2017-03-28T04:15:16.568Z,1039.72
2017-03-28T04:16:16.556Z,1039.7
2017-03-28T04:17:16.562Z,1039.7
2017-03-28T04:18:16.532Z,1039.71
2017-03-28T04:19:16.519Z,1039.74
2017-03-28T04:20:16.506Z,1039.72
2017-03-28T04:21:16.494Z,1039.73
2017-03-28T04:22:16.481Z,1039.71
2017-03-28T04:23:16.469Z,1039.72
2017-03-28T04:24:16.456Z,1039.72
2017-03-28T04:25:16.443Z,1039.75
2017-03-28T04:26:16.431Z,1039.72
2017-03-28T04:27:16.418Z,1039.72
2017-03-28T04:28:16.405Z,1039.77
2017-03-28T04:29:16.392Z,1039.74
2017-03-28T04:30:16.379Z,1039.72
2017-03-28T04:31:16.367Z,1039.76
2017-03-28T04:32:16.355Z,1039.74
2017-03-28T04:33:16.341Z,1039.74
2017-03-28T04:34:16.329Z,1039.72
2017-03-28T04:35:16.316Z,1039.72
2017-03-28T04:36:16.304Z,1039.71
2017-03-28T04:37:16.291Z,1039.73
2017-03-28T04:38:16.278Z,1039.72
2017-03-28T04:39:16.266Z,1039.73
2017-03-28T04:40:16.253Z,1039.73
2017-03-28T04:41:16.240Z,1039.74
2017-03-28T04:42:16.227Z,1039.69
2017-03-28T04:43:16.215Z,1039.68
2017-03-28T04:44:16.203Z,1039.71
2017-03-28T04:45:16.189Z,1039.66
2017-03-28T04:46:16.177Z,1039.66
2017-03-28T04:47:16.164Z,1039.66
2017-03-28T04:48:16.154Z,1039.7
2017-03-28T04:49:16.138Z,1039.71
2017-03-28T04:50:16.126Z,1039.68
2017-03-28T04:51:16.112Z,1039.69
2017-03-28T04:52:16.100Z,1039.68
2017-03-28T04:53:16.087Z,1039.69
2017-03-28T04:54:16.076Z,1039.68
2017-03-28T04:55:16.062Z,1039.63
2017-03-28T04:56:16.049Z,1039.58
2017-03-28T04:57:16.038Z,1039.57
2017-03-28T04:58:16.025Z,1039.53
2017-03-28T04:59:16.012Z,1039.53
2017-03-28T05:00:15.999Z,1039.48
2017-03-28T05:01:15.987Z,1039.43
2017-03-28T05:02:15.973Z,1039.41
2017-03-28T05:03:15.962Z,1039.41
2017-03-28T05:04:15.948Z,1039.35
2017-03-28T05:05:15.936Z,1039.38
2017-03-28T05:06:15.923Z,1039.31
2017-03-28T05:07:15.911Z,1039.3
2017-03-28T05:08:15.900Z,1039.32
2017-03-28T05:09:15.887Z,1039.29
2017-03-28T05:10:15.873Z,1039.23
2017-03-28T05:11:15.861Z,1039.21
2017-03-28T05:12:15.849Z,1039.18
2017-03-28T05:13:15.836Z,1039.07
2017-03-28T05:14:15.825Z,1038.94
2017-03-28T05:15:15.811Z,1038.86
2017-03-28T05:16:15.800Z,1038.71
2017-03-28T05:17:15.786Z,1038.57
2017-03-28T05:18:15.775Z,1038.53
2017-03-28T05:19:15.763Z,1038.42
2017-03-28T05:20:15.751Z,1038.24
2017-03-28T05:21:15.739Z,1037.99
2017-03-28T05:22:15.727Z,1037.75
2017-03-28T05:23:15.715Z,1037.5
2017-03-28T05:24:15.703Z,1037.33
2017-03-28T05:25:15.691Z,1037.13
2017-03-28T05:26:15.681Z,1036.92
2017-03-28T05:27:15.669Z,1036.76
2017-03-28T05:28:15.658Z,1036.6
2017-03-28T05:29:15.647Z,1036.44
2017-03-28T05:30:15.636Z,1036.22
2017-03-28T05:31:15.627Z,1036.04
2017-03-28T05:32:15.615Z,1035.9
2017-03-28T05:33:15.606Z,1035.73
2017-03-28T05:34:15.596Z,1035.54
2017-03-28T05:35:15.585Z,1035.4
2017-03-28T05:36:15.576Z,1035.24
2017-03-28T05:37:15.569Z,1035.08
2017-03-28T05:38:15.559Z,1034.97
2017-03-28T05:39:15.548Z,1034.76
2017-03-28T05:40:15.540Z,1034.67
2017-03-28T05:41:15.532Z,1034.53
2017-03-28T05:42:15.525Z,1034.4
2017-03-28T05:43:15.516Z,1034.27
2017-03-28T05:44:15.508Z,1034.1
2017-03-28T05:45:15.500Z,1034.01
2017-03-28T05:46:15.492Z,1033.87
2017-03-28T05:47:15.485Z,1033.73
2017-03-28T05:48:15.480Z,1033.58
2017-03-28T05:49:15.472Z,1033.49
2017-03-28T05:50:15.465Z,1033.34
2017-03-28T05:51:15.459Z,1033.24
2017-03-28T05:52:15.453Z,1033.14
2017-03-28T05:53:15.447Z,1033.02
2017-03-28T05:54:15.442Z,1032.95
2017-03-28T05:55:15.436Z,1032.83
2017-03-28T05:56:15.431Z,1032.75
2017-03-28T05:57:15.425Z,1032.66
2017-03-28T05:58:15.421Z,1032.6
2017-03-28T05:59:15.416Z,1032.5
2017-03-28T06:00:15.412Z,1032.44
2017-03-28T06:01:15.406Z,1032.32
2017-03-28T06:02:15.402Z,1032.25
2017-03-28T06:03:15.399Z,1032.15
2017-03-28T06:04:15.393Z,1032.03
2017-03-28T06:05:15.389Z,1031.96
2017-03-28T06:06:15.385Z,1031.89
2017-03-28T06:07:15.383Z,1031.83
2017-03-28T06:08:15.378Z,1031.75
2017-03-28T06:09:15.381Z,1031.65
2017-03-28T06:10:15.373Z,1031.65
2017-03-28T06:11:15.369Z,1031.52
2017-03-28T06:12:15.366Z,1031.49
2017-03-28T06:13:15.364Z,1031.39
2017-03-28T06:14:15.363Z,1031.33
2017-03-28T06:15:15.358Z,1031.25
2017-03-28T06:16:15.355Z,1031.2
2017-03-28T06:17:15.353Z,1031.13
2017-03-28T06:18:15.352Z,1031.03
2017-03-28T06:19:15.350Z,1030.99
2017-03-28T06:20:15.348Z,1030.97
2017-03-28T06:21:15.346Z,1030.94
2017-03-28T06:22:15.345Z,1030.89
2017-03-28T06:23:15.352Z,1030.79
2017-03-28T06:24:15.342Z,1030.66
2017-03-28T06:25:15.341Z,1030.56
2017-03-28T06:26:15.340Z,1030.49
2017-03-28T06:27:15.338Z,1030.34
2017-03-28T06:28:15.337Z,1030.27
2017-03-28T06:29:15.338Z,1030.14
2017-03-28T06:30:15.336Z,1030.03
2017-03-28T06:31:15.336Z,1029.93
2017-03-28T06:32:15.336Z,1029.87
2017-03-28T06:33:15.335Z,1029.8
2017-03-28T06:34:15.333Z,1029.76
2017-03-28T06:35:15.334Z,1029.69
2017-03-28T06:36:15.335Z,1029.66
2017-03-28T06:37:15.335Z,1029.58
2017-03-28T06:38:15.335Z,1029.49
2017-03-28T06:39:15.363Z,1029.42
2017-03-28T06:40:15.337Z,1029.29
2017-03-28T06:41:15.338Z,1029.23
2017-03-28T06:42:15.340Z,1029.24
2017-03-28T06:43:15.340Z,1029.19
2017-03-28T06:44:15.342Z,1029.12
2017-03-28T06:45:15.344Z,1029.09
2017-03-28T06:46:15.345Z,1028.98
2017-03-28T06:47:15.347Z,1028.94
2017-03-28T06:48:15.348Z,1028.93
2017-03-28T06:49:15.352Z,1028.86
2017-03-28T06:50:15.353Z,1028.82
2017-03-28T06:51:15.356Z,1028.77
2017-03-28T06:52:15.357Z,1028.65
2017-03-28T06:53:15.360Z,1028.57
2017-03-28T06:54:15.362Z,1028.48
2017-03-28T06:55:15.367Z,1028.47
2017-03-28T06:56:15.369Z,1028.52
2017-03-28T06:57:15.373Z,1028.48
2017-03-28T06:58:15.376Z,1028.38
2017-03-28T06:59:15.379Z,1028.29
2017-03-28T07:00:15.382Z,1028.25
2017-03-28T07:01:15.388Z,1028.15
2017-03-28T07:02:15.391Z,1028.15
2017-03-28T07:03:15.394Z,1028.09
2017-03-28T07:04:15.399Z,1027.97
2017-03-28T07:05:15.403Z,1027.9
2017-03-28T07:06:15.410Z,1027.81
2017-03-28T07:07:15.412Z,1027.74
2017-03-28T07:08:15.417Z,1027.72
2017-03-28T07:09:15.423Z,1027.64
2017-03-28T07:10:15.428Z,1027.55
2017-03-28T07:11:15.433Z,1027.51
2017-03-28T07:12:15.439Z,1027.5
2017-03-28T07:13:15.445Z,1027.46
2017-03-28T07:14:15.450Z,1027.47
2017-03-28T07:15:15.457Z,1027.5
2017-03-28T07:16:15.463Z,1027.5
2017-03-28T07:17:15.468Z,1027.48
2017-03-28T07:18:15.476Z,1027.48
2017-03-28T07:19:15.482Z,1027.44
2017-03-28T07:20:15.488Z,1027.34
2017-03-28T07:21:15.495Z,1027.29
2017-03-28T07:22:15.502Z,1027.26
2017-03-28T07:23:15.510Z,1027.24
2017-03-28T07:24:15.518Z,1027.23
2017-03-28T07:25:15.524Z,1027.15
2017-03-28T07:26:15.532Z,1027.08
2017-03-28T07:27:15.541Z,1027.02
2017-03-28T07:28:15.549Z,1026.9
2017-03-28T07:29:15.559Z,1026.73
2017-03-28T07:30:15.566Z,1026.7
2017-03-28T07:31:15.575Z,1026.72
2017-03-28T07:32:15.583Z,1026.61
2017-03-28T07:33:15.591Z,1026.54
2017-03-28T07:34:15.601Z,1026.41
2017-03-28T07:35:15.610Z,1026.34
2017-03-28T07:36:15.619Z,1026.28
2017-03-28T07:37:15.630Z,1026.35
2017-03-28T07:38:15.639Z,1026.3
2017-03-28T07:39:15.648Z,1026.3
2017-03-28T07:40:15.657Z,1026.28
2017-03-28T07:41:15.668Z,1026.29
2017-03-28T07:42:15.678Z,1026.22
2017-03-28T07:43:15.688Z,1026.1
2017-03-28T07:44:15.698Z,1026.06
2017-03-28T07:45:15.709Z,1026.03
2017-03-28T07:46:15.718Z,1026.09
2017-03-28T07:47:15.729Z,1026.02
2017-03-28T07:48:15.739Z,1026.2
2017-03-28T07:49:15.749Z,1026.46
2017-03-28T07:50:15.758Z,1026.65
2017-03-28T07:51:15.769Z,1026.87
2017-03-28T07:52:15.779Z,1027.01
2017-03-28T07:53:15.789Z,1027.11
2017-03-28T07:54:15.798Z,1027.16
2017-03-28T07:55:15.808Z,1027.23
2017-03-28T07:56:15.818Z,1027.38
2017-03-28T07:57:15.827Z,1027.48
2017-03-28T07:58:15.837Z,1027.51
2017-03-28T07:59:15.848Z,1027.58
2017-03-28T08:00:15.856Z,1027.64
2017-03-28T08:01:15.865Z,1027.68
2017-03-28T08:02:15.874Z,1027.71
2017-03-28T08:03:15.885Z,1027.68
2017-03-28T08:04:15.893Z,1027.8
2017-03-28T08:05:15.902Z,1027.8
2017-03-28T08:06:15.911Z,1027.83
2017-03-28T08:07:15.921Z,1027.74
2017-03-28T08:08:15.929Z,1027.75
2017-03-28T08:09:15.937Z,1027.73
2017-03-28T08:10:15.946Z,1027.72
2017-03-28T08:11:15.954Z,1027.78
2017-03-28T08:12:15.963Z,1027.75
2017-03-28T08:13:15.972Z,1027.82
2017-03-28T08:14:15.981Z,1027.99
2017-03-28T08:15:15.988Z,1028.48
2017-03-28T08:16:15.996Z,1029.25
2017-03-28T08:17:16.005Z,1029.88
2017-03-28T08:18:16.011Z,1030.35
2017-03-28T08:19:16.021Z,1030.75
2017-03-28T08:20:16.027Z,1031.15
2017-03-28T08:21:16.033Z,1031.4
2017-03-28T08:22:16.040Z,1031.76
2017-03-28T08:23:16.045Z,1031.96
2017-03-28T08:24:16.051Z,1032.21
2017-03-28T08:25:16.056Z,1032.45
2017-03-28T08:26:16.063Z,1032.66
2017-03-28T08:27:16.065Z,1032.91
2017-03-28T08:28:16.069Z,1033.11
2017-03-28T08:29:16.075Z,1033.26
2017-03-28T08:30:16.076Z,1033.46
2017-03-28T08:31:16.078Z,1033.63
2017-03-28T08:32:16.083Z,1033.79
2017-03-28T08:33:16.083Z,1033.9
2017-03-28T08:34:16.085Z,1033.96
2017-03-28T08:35:16.086Z,1034.12
2017-03-28T08:36:16.088Z,1034.17
2017-03-28T08:37:16.087Z,1034.26
2017-03-28T08:38:16.088Z,1034.33
2017-03-28T08:39:16.088Z,1034.38
2017-03-28T08:40:16.090Z,1034.43
2017-03-28T08:41:16.090Z,1034.5
2017-03-28T08:42:16.088Z,1034.52
2017-03-28T08:43:16.088Z,1034.64
2017-03-28T08:44:16.087Z,1034.64
2017-03-28T08:45:16.085Z,1034.69
2017-03-28T08:46:16.084Z,1034.7
2017-03-28T08:47:16.085Z,1034.74
2017-03-28T08:48:16.082Z,1034.74
2017-03-28T08:49:16.080Z,1034.83
2017-03-28T08:50:16.079Z,1034.82
2017-03-28T08:51:16.077Z,1034.89
2017-03-28T08:52:16.376Z,1034.88
2017-03-28T08:53:16.072Z,1034.9
2017-03-28T08:54:16.071Z,1034.91
2017-03-28T08:55:16.069Z,1034.9
2017-03-28T08:56:16.066Z,1034.88
2017-03-28T08:57:16.064Z,1034.88
2017-03-28T08:58:16.061Z,1034.9
2017-03-28T08:59:16.060Z,1034.94
2017-03-28T09:00:16.058Z,1034.96
2017-03-28T09:01:16.055Z,1034.94
2017-03-28T09:02:16.054Z,1034.96
2017-03-28T09:03:16.053Z,1034.95
2017-03-28T09:04:16.049Z,1034.99
2017-03-28T09:05:16.046Z,1034.98
2017-03-28T09:06:16.043Z,1034.97
2017-03-28T09:07:16.040Z,1034.98
2017-03-28T09:08:16.037Z,1035.01
2017-03-28T09:09:16.035Z,1035.02
2017-03-28T09:10:16.031Z,1035.01
2017-03-28T09:11:16.029Z,1034.99
2017-03-28T09:12:16.025Z,1034.95
2017-03-28T09:13:16.022Z,1034.98
2017-03-28T09:14:16.019Z,1034.98
2017-03-28T09:15:16.016Z,1035
2017-03-28T09:16:16.014Z,1034.98
2017-03-28T09:17:16.011Z,1034.95
2017-03-28T09:18:16.009Z,1034.94
2017-03-28T09:19:16.005Z,1034.98
2017-03-28T09:20:16.002Z,1034.93
2017-03-28T09:21:15.998Z,1034.97
2017-03-28T09:22:15.994Z,1034.95
2017-03-28T09:23:15.992Z,1035
2017-03-28T09:24:15.990Z,1034.97
2017-03-28T09:25:15.985Z,1034.97
2017-03-28T09:26:15.983Z,1034.98
2017-03-28T09:27:15.981Z,1034.97
2017-03-28T09:28:16.003Z,1034.95
2017-03-28T09:29:15.977Z,1034.92
2017-03-28T09:30:15.970Z,1034.93
2017-03-28T09:31:15.967Z,1034.9
2017-03-28T09:32:15.964Z,1034.91
2017-03-28T09:33:15.959Z,1034.87
2017-03-28T09:34:15.958Z,1034.88
2017-03-28T09:35:15.956Z,1034.88
2017-03-28T09:36:15.951Z,1034.86
2017-03-28T09:37:15.950Z,1034.83
2017-03-28T09:38:15.947Z,1034.83
2017-03-28T09:39:15.943Z,1034.83
2017-03-28T09:40:15.941Z,1034.82
2017-03-28T09:41:15.936Z,1034.81
2017-03-28T09:42:15.932Z,1034.8
2017-03-28T09:43:15.930Z,1034.81
2017-03-28T09:44:15.926Z,1034.79
2017-03-28T09:45:15.923Z,1034.79
2017-03-28T09:46:15.922Z,1034.78
2017-03-28T09:47:15.917Z,1034.76
2017-03-28T09:48:15.913Z,1034.75
2017-03-28T09:49:15.911Z,1034.76
2017-03-28T09:50:15.930Z,1034.74
2017-03-28T09:51:15.904Z,1034.69
2017-03-28T09:52:15.901Z,1034.67
2017-03-28T09:53:15.899Z,1034.66
2017-03-28T09:54:15.896Z,1034.62
2017-03-28T09:55:15.892Z,1034.61
2017-03-28T09:56:15.889Z,1034.6
2017-03-28T09:57:15.886Z,1034.59
2017-03-28T09:58:15.883Z,1034.58
2017-03-28T09:59:15.879Z,1034.56
2017-03-28T10:00:15.877Z,1034.54
2017-03-28T10:01:15.874Z,1034.59
2017-03-28T10:02:15.871Z,1034.56
2017-03-28T10:03:15.867Z,1034.57
2017-03-28T10:04:15.865Z,1034.52
2017-03-28T10:05:15.862Z,1034.52
2017-03-28T10:06:15.859Z,1034.44
2017-03-28T10:07:15.855Z,1034.45
2017-03-28T10:08:15.853Z,1034.4
2017-03-28T10:09:15.849Z,1034.37
2017-03-28T10:10:15.848Z,1034.38
2017-03-28T10:11:15.845Z,1034.38
2017-03-28T10:12:15.842Z,1034.37
2017-03-28T10:13:15.856Z,1034.35
2017-03-28T10:14:15.836Z,1034.35
2017-03-28T10:15:15.833Z,1034.34
2017-03-28T10:16:15.830Z,1034.32
2017-03-28T10:17:15.827Z,1034.31
2017-03-28T10:18:15.824Z,1034.3
2017-03-28T10:19:15.822Z,1034.33
2017-03-28T10:20:15.818Z,1034.33
2017-03-28T10:21:15.815Z,1034.26
2017-03-28T10:22:15.816Z,1034.27
2017-03-28T10:23:15.810Z,1034.23
2017-03-28T10:24:15.807Z,1034.22
2017-03-28T10:25:15.803Z,1034.11
2017-03-28T10:26:15.801Z,1034.1
2017-03-28T10:27:15.799Z,1034.05
2017-03-28T10:28:15.799Z,1034.02
2017-03-28T10:29:15.794Z,1033.96
2017-03-28T10:30:15.791Z,1033.99
2017-03-28T10:31:15.788Z,1033.96
2017-03-28T10:32:15.785Z,1033.93
2017-03-28T10:33:15.782Z,1033.92
2017-03-28T10:34:15.780Z,1033.91
2017-03-28T10:35:15.782Z,1033.89
2017-03-28T10:36:15.774Z,1033.86
2017-03-28T10:37:15.774Z,1033.85
2017-03-28T10:38:15.770Z,1033.82
2017-03-28T10:39:15.767Z,1033.78
2017-03-28T10:40:15.765Z,1033.73
2017-03-28T10:41:15.762Z,1033.72
2017-03-28T10:42:15.758Z,1033.75
2017-03-28T10:43:15.756Z,1033.68
2017-03-28T10:44:15.754Z,1033.67
2017-03-28T10:45:15.752Z,1033.67
2017-03-28T10:46:15.748Z,1033.67
2017-03-28T10:47:15.751Z,1033.68
2017-03-28T10:48:15.747Z,1033.64
2017-03-28T10:49:15.740Z,1033.63
2017-03-28T10:50:15.739Z,1033.62
2017-03-28T10:51:15.736Z,1033.58
2017-03-28T10:52:15.734Z,1033.54
2017-03-28T10:53:15.732Z,1033.56
2017-03-28T10:54:15.729Z,1033.56
2017-03-28T10:55:15.726Z,1033.54
2017-03-28T10:56:15.724Z,1033.52
2017-03-28T10:57:15.721Z,1033.46
2017-03-28T10:58:15.718Z,1033.46
2017-03-28T10:59:15.716Z,1033.45
2017-03-28T11:00:15.714Z,1033.44
2017-03-28T11:01:15.710Z,1033.42
2017-03-28T11:02:15.710Z,1033.39
2017-03-28T11:03:15.706Z,1033.37
2017-03-28T11:04:15.704Z,1033.35
2017-03-28T11:05:15.702Z,1033.33
2017-03-28T11:06:15.700Z,1033.28
2017-03-28T11:07:15.697Z,1033.29
2017-03-28T11:08:15.695Z,1033.31
2017-03-28T11:09:15.693Z,1033.27
2017-03-28T11:10:15.691Z,1033.29
2017-03-28T11:11:15.687Z,1033.24
2017-03-28T11:12:15.686Z,1033.23
2017-03-28T11:13:15.683Z,1033.23
2017-03-28T11:14:15.681Z,1033.21
2017-03-28T11:15:15.678Z,1033.21
2017-03-28T11:16:15.676Z,1033.21
2017-03-28T11:17:15.674Z,1033.21
2017-03-28T11:18:15.674Z,1033.17
2017-03-28T11:19:15.670Z,1033.14
2017-03-28T11:20:15.667Z,1033.11
2017-03-28T11:21:15.665Z,1033.11
2017-03-28T11:22:15.665Z,1033.07
2017-03-28T11:23:15.661Z,1033.06
2017-03-28T11:24:15.660Z,1033.09
2017-03-28T11:25:15.656Z,1033.07
2017-03-28T11:26:15.653Z,1033.03
2017-03-28T11:27:15.652Z,1032.99
2017-03-28T11:28:15.650Z,1032.94
2017-03-28T11:29:15.648Z,1032.94
2017-03-28T11:30:15.644Z,1032.91
2017-03-28T11:31:15.645Z,1032.91
2017-03-28T11:32:15.641Z,1032.89
2017-03-28T11:33:15.638Z,1032.86
2017-03-28T11:34:15.637Z,1032.84
2017-03-28T11:35:15.639Z,1032.82
2017-03-28T11:36:15.634Z,1032.81
2017-03-28T11:37:15.630Z,1032.81
2017-03-28T11:38:15.628Z,1032.79
2017-03-28T11:39:15.626Z,1032.77
2017-03-28T11:40:15.624Z,1032.77
2017-03-28T11:41:15.622Z,1032.73
2017-03-28T11:42:15.620Z,1032.73
2017-03-28T11:43:15.618Z,1032.74
2017-03-28T11:44:15.615Z,1032.68
2017-03-28T11:45:15.613Z,1032.71
2017-03-28T11:46:15.611Z,1032.68
2017-03-28T11:47:15.611Z,1032.63
2017-03-28T11:48:15.607Z,1032.63
2017-03-28T11:49:15.606Z,1032.62
2017-03-28T11:50:15.604Z,1032.57
2017-03-28T11:51:15.602Z,1032.57
2017-03-28T11:52:15.601Z,1032.57
2017-03-28T11:53:15.597Z,1032.56
2017-03-28T11:54:15.595Z,1032.57
2017-03-28T11:55:15.593Z,1032.52
2017-03-28T11:56:15.592Z,1032.52
2017-03-28T11:57:15.590Z,1032.52
2017-03-28T11:58:15.589Z,1032.49
2017-03-28T11:59:15.585Z,1032.42
2017-03-28T12:00:15.584Z,1032.36
2017-03-28T12:01:15.582Z,1032.4
2017-03-28T12:02:15.580Z,1032.35
2017-03-28T12:03:15.578Z,1032.34
2017-03-28T12:04:15.575Z,1032.32
2017-03-28T12:05:15.574Z,1032.32
2017-03-28T12:06:15.573Z,1032.27
2017-03-28T12:07:15.570Z,1032.24
2017-03-28T12:08:15.569Z,1032.22